Galva, Illinois
Current Conditions -  °F | °C
As of 5:35 AM on Tuesday 21 Oct 2014 (Local Time) from KGBG Reporting Station
Clear Clear  
Wind Chill: 36°   Ceiling: Unl
Heat Index: 36°   Visibility: 10mi
Dew Point: 36°   Wind: 3mph
Humidity: 98%   Direction: 350°N
Pressure: 30.09"   Gusts: NA
Location:  41.17°N, 90.04°W
Report Text: KGBG 211035Z AUTO 35003KT 10SM CLR 02/02 A3009 RMK AO2 T00230020
Loading
Personal Weather Stations






























Interactive Weather Map
Tropical Storm Tracking
New forecast layout! Learn more

10-Day Weather Forecast

Advertisements
Track Severe Weather on mobile